• Join FlightAware (Why Join?)
  • Login
  • US Flag 
10:44PM EST


 

Airport Tracker/Info


-or-


 

Live Flight TrackerFlight Track Log ✈ THY2451 ✈ 21-Jun-2013 ✈ LTAF / ADA - LTBA / IST

Flight Track Log - Related Links

Times and Time Zones

All times are in EDT time to prevent confusion due to time zone crossing. See the THY2451 flight status page for this flight to view local times or setup timezone preferences in your user account.

Time Position Orientation Groundspeed Altitude Reporting Facility
EDT Latitude Longitude Course Direction KTS MPH feet Rate Location/Type
08:59PM 37.6154 34.3390 311° West  Level Estimated
09:00PM 37.6726 34.2526 310° West  Level Estimated
09:01PM 37.7298 34.1661 310° West  Level Estimated
09:02PM 37.7868 34.0795 310° West  Level Estimated
09:03PM 37.8438 33.9927 310° West  Level Estimated
09:04PM 37.9008 33.9058 310° West  Level Estimated
09:05PM 37.9577 33.8188 310° West  Level Estimated
09:06PM 38.0145 33.7316 310° West  Level Estimated
09:07PM 38.0712 33.6443 310° West  Level Estimated
09:08PM 38.1279 33.5568 310° West  Level Estimated
09:09PM 38.1845 33.4692 309° West  Level Estimated
09:10PM 38.2411 33.3815 309° West  Level Estimated
09:11PM 38.2976 33.2937 309° West  Level Estimated
09:12PM 38.3540 33.2057 309° West  Level Estimated
09:13PM 38.4104 33.1176 309° West  Level Estimated
09:14PM 38.4666 33.0293 309° West  Level Estimated
09:15PM 38.5229 32.9409 309° West  Level Estimated
09:16PM 38.5790 32.8523 309° West  Level Estimated
09:17PM 38.6351 32.7637 309° West  Level Estimated
09:18PM 38.6912 32.6749 309° West  Level Estimated
09:19PM 38.7471 32.5859 309° West  Level Estimated
09:20PM 38.8030 32.4968 309° West  Level Estimated
09:21PM 38.8588 32.4076 309° West  Level Estimated
09:22PM 38.9146 32.3182 309° West  Level Estimated
09:23PM 38.9703 32.2286 309° West  Level Estimated
09:24PM 39.0259 32.1390 309° West  Level Estimated
09:25PM 39.0815 32.0492 309° West  Level Estimated
09:26PM 39.1369 31.9592 309° West  Level Estimated
09:27PM 39.1923 31.8692 308° West  Level Estimated
09:28PM 39.2477 31.7789 308° West  Level Estimated
09:29PM 39.3030 31.6886 308° West  Level Estimated
09:30PM 39.3582 31.5981 308° West  Level Estimated
09:31PM 39.4133 31.5074 308° West  Level Estimated
09:32PM 39.4683 31.4166 308° West  Level Estimated
09:33PM 39.5233 31.3257 308° West  Level Estimated
09:34PM 39.5783 31.2346 308° West  Level Estimated
09:35PM 39.6331 31.1434 308° West  Level Estimated
09:36PM 39.6879 31.0520 308° West  Level Estimated
09:37PM 39.7426 30.9605 308° West  Level Estimated
09:38PM 39.7972 30.8688 308° West  Level Estimated
09:39PM 39.8518 30.7770 308° West  Level Estimated
09:40PM 39.9063 30.6850 308° West  Level Estimated
09:41PM 39.9607 30.5929 308° West  Level Estimated
09:42PM 40.0150 30.5007 308° West  Level Estimated
09:43PM 40.0693 30.4083 308° West  Level Estimated
09:44PM 40.1235 30.3158 307° West  Level Estimated
09:45PM 40.1776 30.2231 307° West  Level Estimated
09:46PM 40.2317 30.1302 307° West  Level Estimated
09:47PM 40.2856 30.0372 307° West  Level Estimated
09:48PM 40.3395 29.9441 307° West  Level Estimated
09:49PM 40.3934 29.8508 307° West  Level Estimated
09:50PM 40.4471 29.7574 307° West  Level Estimated
09:51PM 40.5008 29.6638 307° West  Level Estimated
09:52PM 40.5544 29.5701 307° West  Level Estimated
09:53PM 40.6079 29.4762 307° West  Level Estimated
09:54PM 40.6614 29.3822 307° West  Level Estimated
09:55PM 40.7147 29.2880 307° West  Level Estimated
09:56PM 40.7680 29.1936 307° West  Level Estimated
09:57PM 40.8212 29.0992 307° West  Level Estimated
09:58PM 40.8744 29.0045 307° West  Level Estimated
09:59PM 40.9274 28.9097 307° West  Level Estimated
10:00PM 40.9769 28.8211 306° West  Level Estimated
10:01PM 40.9769 28.8211 21° North  Level Estimated
10:02PM 40.9769 28.8211 21° North  Level Estimated
10:03PM 40.9769 28.8211 21° North  Level Estimated
10:04PM 40.9769 28.8211 21° North  Level Estimated
10:05PM 40.9769 28.8211 21° North  Level Estimated
10:06PM 40.9769 28.8211 21° North  Level Estimated
10:07PM 40.9769 28.8211 21° North  Level Estimated
10:08PM 40.9769 28.8211 21° North  Level Estimated
10:09PM 40.9769 28.8211 21° North  Level Estimated